sensor_id;sensor_type;location;lat;lon;timestamp;pressure;altitude;pressure_sealevel;temperature;humidity
39243;BME280;29823;47.404;8.566;2023-04-29T00:00:53;96347.81;;;13.23;100.00
39243;BME280;29823;47.404;8.566;2023-04-29T00:03:21;96345.31;;;13.16;100.00
39243;BME280;29823;47.404;8.566;2023-04-29T00:05:49;96345.31;;;13.16;100.00
39243;BME280;29823;47.404;8.566;2023-04-29T00:08:18;96352.53;;;13.11;100.00
39243;BME280;29823;47.404;8.566;2023-04-29T00:10:46;96343.94;;;13.14;100.00
39243;BME280;29823;47.404;8.566;2023-04-29T00:13:14;96361.94;;;13.13;100.00
39243;BME280;29823;47.404;8.566;2023-04-29T00:15:42;96338.16;;;13.22;100.00
39243;BME280;29823;47.404;8.566;2023-04-29T00:18:12;96335.16;;;13.18;100.00
39243;BME280;29823;47.404;8.566;2023-04-29T00:20:40;96336.31;;;13.27;100.00
39243;BME280;29823;47.404;8.566;2023-04-29T00:23:09;96329.84;;;13.23;100.00
39243;BME280;29823;47.404;8.566;2023-04-29T00:25:37;96322.72;;;13.34;100.00
39243;BME280;29823;47.404;8.566;2023-04-29T00:28:04;96324.03;;;13.31;100.00
39243;BME280;29823;47.404;8.566;2023-04-29T00:30:32;96339.00;;;13.27;100.00
39243;BME280;29823;47.404;8.566;2023-04-29T00:33:01;96335.25;;;13.28;100.00
39243;BME280;29823;47.404;8.566;2023-04-29T00:35:30;96353.66;;;13.41;100.00
39243;BME280;29823;47.404;8.566;2023-04-29T00:37:58;96348.72;;;13.33;100.00
39243;BME280;29823;47.404;8.566;2023-04-29T00:40:26;96351.00;;;13.41;100.00
39243;BME280;29823;47.404;8.566;2023-04-29T00:42:54;96333.16;;;13.30;100.00
39243;BME280;29823;47.404;8.566;2023-04-29T00:45:22;96351.59;;;13.48;100.00
39243;BME280;29823;47.404;8.566;2023-04-29T00:47:50;96348.66;;;13.50;100.00
39243;BME280;29823;47.404;8.566;2023-04-29T00:50:18;96336.28;;;13.49;100.00
39243;BME280;29823;47.404;8.566;2023-04-29T00:52:48;96343.59;;;13.53;100.00
39243;BME280;29823;47.404;8.566;2023-04-29T00:55:16;96345.44;;;13.48;100.00
39243;BME280;29823;47.404;8.566;2023-04-29T00:57:44;96337.91;;;13.50;100.00
39243;BME280;29823;47.404;8.566;2023-04-29T01:00:13;96337.38;;;13.48;100.00
39243;BME280;29823;47.404;8.566;2023-04-29T01:02:42;96335.47;;;13.48;100.00
39243;BME280;29823;47.404;8.566;2023-04-29T01:05:11;96331.78;;;13.54;100.00
39243;BME280;29823;47.404;8.566;2023-04-29T01:07:44;96332.66;;;13.60;100.00
39243;BME280;29823;47.404;8.566;2023-04-29T01:10:21;96329.22;;;13.69;100.00
39243;BME280;29823;47.404;8.566;2023-04-29T01:12:59;96321.94;;;13.65;100.00
39243;BME280;29823;47.404;8.566;2023-04-29T01:15:32;96333.03;;;13.73;100.00
39243;BME280;29823;47.404;8.566;2023-04-29T01:18:04;96329.00;;;13.71;100.00
39243;BME280;29823;47.404;8.566;2023-04-29T01:20:35;96331.13;;;13.69;100.00
39243;BME280;29823;47.404;8.566;2023-04-29T01:23:04;96343.44;;;13.65;100.00
39243;BME280;29823;47.404;8.566;2023-04-29T01:25:33;96329.75;;;13.66;100.00
39243;BME280;29823;47.404;8.566;2023-04-29T01:28:08;96329.78;;;13.71;100.00
39243;BME280;29823;47.404;8.566;2023-04-29T01:30:45;96327.88;;;13.67;100.00
39243;BME280;29823;47.404;8.566;2023-04-29T01:33:25;96325.44;;;13.65;100.00
39243;BME280;29823;47.404;8.566;2023-04-29T01:36:07;96322.75;;;13.65;100.00
39243;BME280;29823;47.404;8.566;2023-04-29T01:38:43;96327.56;;;13.63;100.00
39243;BME280;29823;47.404;8.566;2023-04-29T01:41:18;96335.38;;;13.65;100.00
39243;BME280;29823;47.404;8.566;2023-04-29T01:43:50;96340.50;;;13.66;100.00
39243;BME280;29823;47.404;8.566;2023-04-29T01:46:19;96345.59;;;13.68;100.00
39243;BME280;29823;47.404;8.566;2023-04-29T01:48:47;96342.91;;;13.68;100.00
39243;BME280;29823;47.404;8.566;2023-04-29T01:51:14;96339.13;;;13.64;100.00
39243;BME280;29823;47.404;8.566;2023-04-29T01:53:42;96333.50;;;13.65;100.00
39243;BME280;29823;47.404;8.566;2023-04-29T01:56:10;96337.59;;;13.73;100.00
39243;BME280;29823;47.404;8.566;2023-04-29T01:58:39;96340.53;;;13.71;100.00
39243;BME280;29823;47.404;8.566;2023-04-29T02:01:07;96341.06;;;13.68;100.00
39243;BME280;29823;47.404;8.566;2023-04-29T02:03:36;96341.81;;;13.64;100.00
39243;BME280;29823;47.404;8.566;2023-04-29T02:06:04;96353.41;;;13.69;100.00
39243;BME280;29823;47.404;8.566;2023-04-29T02:08:33;96351.25;;;13.66;100.00
39243;BME280;29823;47.404;8.566;2023-04-29T02:11:01;96345.91;;;13.71;100.00
39243;BME280;29823;47.404;8.566;2023-04-29T02:13:29;96354.94;;;13.60;100.00
39243;BME280;29823;47.404;8.566;2023-04-29T02:16:06;96349.06;;;13.63;100.00
39243;BME280;29823;47.404;8.566;2023-04-29T02:18:34;96334.44;;;13.54;100.00
39243;BME280;29823;47.404;8.566;2023-04-29T02:21:02;96345.31;;;13.64;100.00
39243;BME280;29823;47.404;8.566;2023-04-29T02:23:29;96345.91;;;13.71;100.00
39243;BME280;29823;47.404;8.566;2023-04-29T02:25:57;96339.53;;;13.77;100.00
39243;BME280;29823;47.404;8.566;2023-04-29T02:28:25;96341.06;;;13.68;100.00
39243;BME280;29823;47.404;8.566;2023-04-29T02:30:53;96324.97;;;13.73;100.00
39243;BME280;29823;47.404;8.566;2023-04-29T02:33:22;96332.13;;;13.63;100.00
39243;BME280;29823;47.404;8.566;2023-04-29T02:35:50;96324.41;;;13.71;100.00
39243;BME280;29823;47.404;8.566;2023-04-29T02:38:17;96324.94;;;13.68;100.00
39243;BME280;29823;47.404;8.566;2023-04-29T02:40:46;96329.44;;;13.63;100.00
39243;BME280;29823;47.404;8.566;2023-04-29T02:43:14;96340.53;;;13.71;100.00
39243;BME280;29823;47.404;8.566;2023-04-29T02:45:42;96341.06;;;13.68;100.00
39243;BME280;29823;47.404;8.566;2023-04-29T02:48:10;96335.38;;;13.65;100.00
39243;BME280;29823;47.404;8.566;2023-04-29T02:50:39;96334.38;;;13.71;100.00
39243;BME280;29823;47.404;8.566;2023-04-29T02:53:07;96324.63;;;13.65;100.00
39243;BME280;29823;47.404;8.566;2023-04-29T02:55:35;96319.75;;;13.62;100.00
39243;BME280;29823;47.404;8.566;2023-04-29T02:58:02;96316.53;;;13.60;100.00
39243;BME280;29823;47.404;8.566;2023-04-29T03:00:30;96326.41;;;13.54;100.00
39243;BME280;29823;47.404;8.566;2023-04-29T03:02:58;96326.34;;;13.49;100.00
39243;BME280;29823;47.404;8.566;2023-04-29T03:05:27;96320.91;;;13.44;100.00
39243;BME280;29823;47.404;8.566;2023-04-29T03:07:56;96326.34;;;13.49;100.00
39243;BME280;29823;47.404;8.566;2023-04-29T03:10:24;96330.09;;;13.48;100.00
39243;BME280;29823;47.404;8.566;2023-04-29T03:12:52;96327.94;;;13.45;100.00
39243;BME280;29823;47.404;8.566;2023-04-29T03:15:20;96332.97;;;13.37;100.00
39243;BME280;29823;47.404;8.566;2023-04-29T03:17:48;96322.00;;;13.43;100.00
39243;BME280;29823;47.404;8.566;2023-04-29T03:20:16;96336.38;;;13.32;100.00
39243;BME280;29823;47.404;8.566;2023-04-29T03:22:45;96323.91;;;13.21;100.00
39243;BME280;29823;47.404;8.566;2023-04-29T03:25:14;96321.28;;;13.26;100.00
39243;BME280;29823;47.404;8.566;2023-04-29T03:27:42;96312.03;;;13.12;100.00
39243;BME280;29823;47.404;8.566;2023-04-29T03:30:10;96317.88;;;13.09;100.00
39243;BME280;29823;47.404;8.566;2023-04-29T03:32:38;96315.75;;;13.11;100.00
39243;BME280;29823;47.404;8.566;2023-04-29T03:35:06;96302.00;;;13.08;100.00
39243;BME280;29823;47.404;8.566;2023-04-29T03:37:34;96301.47;;;13.06;100.00
39243;BME280;29823;47.404;8.566;2023-04-29T03:40:03;96307.63;;;13.06;100.00
39243;BME280;29823;47.404;8.566;2023-04-29T03:42:32;96299.34;;;13.08;100.00
39243;BME280;29823;47.404;8.566;2023-04-29T03:45:00;96297.34;;;12.98;100.00
39243;BME280;29823;47.404;8.566;2023-04-29T03:47:28;96301.00;;;12.92;100.00
39243;BME280;29823;47.404;8.566;2023-04-29T03:49:55;96299.41;;;12.91;100.00
39243;BME280;29823;47.404;8.566;2023-04-29T03:52:23;96299.34;;;12.86;100.00
39243;BME280;29823;47.404;8.566;2023-04-29T03:54:51;96308.38;;;12.80;100.00
39243;BME280;29823;47.404;8.566;2023-04-29T03:57:19;96301.31;;;12.74;100.00
39243;BME280;29823;47.404;8.566;2023-04-29T03:59:48;96301.94;;;12.81;100.00
39243;BME280;29823;47.404;8.566;2023-04-29T04:02:17;96287.97;;;12.79;100.00
39243;BME280;29823;47.404;8.566;2023-04-29T04:04:45;96300.34;;;12.80;100.00
39243;BME280;29823;47.404;8.566;2023-04-29T04:07:13;96314.31;;;12.82;100.00
39243;BME280;29823;47.404;8.566;2023-04-29T04:09:41;96308.75;;;12.67;100.00
39243;BME280;29823;47.404;8.566;2023-04-29T04:12:09;96299.53;;;12.58;100.00
39243;BME280;29823;47.404;8.566;2023-04-29T04:14:37;96303.81;;;12.59;100.00
39243;BME280;29823;47.404;8.566;2023-04-29T04:17:06;96305.69;;;12.59;100.00
39243;BME280;29823;47.404;8.566;2023-04-29T04:19:33;96310.63;;;12.67;100.00
39243;BME280;29823;47.404;8.566;2023-04-29T04:22:02;96304.91;;;12.63;100.00
39243;BME280;29823;47.404;8.566;2023-04-29T04:24:30;96319.47;;;12.67;100.00
39243;BME280;29823;47.404;8.566;2023-04-29T04:26:57;96316.09;;;12.55;100.00
39243;BME280;29823;47.404;8.566;2023-04-29T04:29:26;96335.13;;;12.54;100.00
39243;BME280;29823;47.404;8.566;2023-04-29T04:31:54;96333.88;;;12.61;100.00
39243;BME280;29823;47.404;8.566;2023-04-29T04:34:23;96339.06;;;12.68;100.00
39243;BME280;29823;47.404;8.566;2023-04-29T04:36:51;96352.16;;;12.64;100.00
39243;BME280;29823;47.404;8.566;2023-04-29T04:39:19;96353.34;;;12.73;100.00
39243;BME280;29823;47.404;8.566;2023-04-29T04:41:47;96355.63;;;12.81;100.00
39243;BME280;29823;47.404;8.566;2023-04-29T04:44:15;96349.59;;;12.74;100.00
39243;BME280;29823;47.404;8.566;2023-04-29T04:46:43;96331.88;;;12.73;100.00
39243;BME280;29823;47.404;8.566;2023-04-29T04:49:11;96366.06;;;12.99;100.00
39243;BME280;29823;47.404;8.566;2023-04-29T04:51:42;96355.09;;;13.01;100.00
39243;BME280;29823;47.404;8.566;2023-04-29T04:54:11;96363.75;;;13.08;100.00
39243;BME280;29823;47.404;8.566;2023-04-29T04:56:38;96361.88;;;13.08;100.00
39243;BME280;29823;47.404;8.566;2023-04-29T04:59:06;96364.69;;;13.18;100.00
39243;BME280;29823;47.404;8.566;2023-04-29T05:01:34;96358.13;;;13.09;100.00
39243;BME280;29823;47.404;8.566;2023-04-29T05:04:02;96367.03;;;13.15;100.00
39243;BME280;29823;47.404;8.566;2023-04-29T05:06:30;96369.69;;;13.10;100.00
39243;BME280;29823;47.404;8.566;2023-04-29T05:08:59;96365.13;;;13.10;100.00
39243;BME280;29823;47.404;8.566;2023-04-29T05:11:27;96370.72;;;13.09;100.00
39243;BME280;29823;47.404;8.566;2023-04-29T05:13:55;96363.03;;;13.12;100.00
39243;BME280;29823;47.404;8.566;2023-04-29T05:16:23;96362.75;;;13.14;100.00
39243;BME280;29823;47.404;8.566;2023-04-29T05:18:51;96370.56;;;13.15;100.00
39243;BME280;29823;47.404;8.566;2023-04-29T05:21:19;96372.28;;;13.26;100.00
39243;BME280;29823;47.404;8.566;2023-04-29T05:23:46;96376.84;;;13.47;100.00
39243;BME280;29823;47.404;8.566;2023-04-29T05:26:16;96371.03;;;13.55;100.00
39243;BME280;29823;47.404;8.566;2023-04-29T05:28:43;96379.09;;;13.60;100.00
39243;BME280;29823;47.404;8.566;2023-04-29T05:31:11;96378.66;;;13.68;100.00
39243;BME280;29823;47.404;8.566;2023-04-29T05:33:39;96380.94;;;13.81;100.00
39243;BME280;29823;47.404;8.566;2023-04-29T05:36:07;96371.16;;;13.97;100.00
39243;BME280;29823;47.404;8.566;2023-04-29T05:38:35;96370.31;;;13.96;100.00
39243;BME280;29823;47.404;8.566;2023-04-29T05:41:06;96357.81;;;14.07;100.00
39243;BME280;29823;47.404;8.566;2023-04-29T05:43:35;96358.53;;;14.02;100.00
39243;BME280;29823;47.404;8.566;2023-04-29T05:46:03;96355.03;;;13.97;100.00
39243;BME280;29823;47.404;8.566;2023-04-29T05:48:32;96373.09;;;14.06;100.00
39243;BME280;29823;47.404;8.566;2023-04-29T05:51:00;96360.16;;;14.03;100.00
39243;BME280;29823;47.404;8.566;2023-04-29T05:53:28;96364.22;;;14.06;100.00
39243;BME280;29823;47.404;8.566;2023-04-29T05:55:56;96373.28;;;14.21;100.00
39243;BME280;29823;47.404;8.566;2023-04-29T05:58:24;96370.38;;;14.33;100.00
39243;BME280;29823;47.404;8.566;2023-04-29T06:00:53;96367.31;;;14.51;100.00
39243;BME280;29823;47.404;8.566;2023-04-29T06:03:25;96357.25;;;14.41;100.00
39243;BME280;29823;47.404;8.566;2023-04-29T06:05:53;96357.44;;;14.66;100.00
39243;BME280;29823;47.404;8.566;2023-04-29T06:08:22;96351.56;;;14.74;100.00
39243;BME280;29823;47.404;8.566;2023-04-29T06:10:50;96349.00;;;14.99;100.00
39243;BME280;29823;47.404;8.566;2023-04-29T06:13:18;96346.56;;;14.98;100.00
39243;BME280;29823;47.404;8.566;2023-04-29T06:15:46;96335.78;;;14.98;100.00
39243;BME280;29823;47.404;8.566;2023-04-29T06:18:15;96357.69;;;15.21;100.00
39243;BME280;29823;47.404;8.566;2023-04-29T06:20:43;96342.91;;;15.29;100.00
39243;BME280;29823;47.404;8.566;2023-04-29T06:23:11;96340.31;;;15.44;100.00
39243;BME280;29823;47.404;8.566;2023-04-29T06:25:38;96339.84;;;15.87;100.00
39243;BME280;29823;47.404;8.566;2023-04-29T06:28:06;96344.44;;;16.06;100.00
39243;BME280;29823;47.404;8.566;2023-04-29T06:30:34;96340.13;;;16.20;100.00
39243;BME280;29823;47.404;8.566;2023-04-29T06:33:02;96341.19;;;16.29;100.00
39243;BME280;29823;47.404;8.566;2023-04-29T06:35:32;96336.34;;;16.11;100.00
39243;BME280;29823;47.404;8.566;2023-04-29T06:37:59;96350.34;;;16.13;100.00
39243;BME280;29823;47.404;8.566;2023-04-29T06:40:27;96335.53;;;15.91;100.00
39243;BME280;29823;47.404;8.566;2023-04-29T06:42:55;96349.28;;;15.99;100.00
39243;BME280;29823;47.404;8.566;2023-04-29T06:45:23;96342.53;;;15.92;100.00
39243;BME280;29823;47.404;8.566;2023-04-29T06:47:51;96359.00;;;16.25;100.00
39243;BME280;29823;47.404;8.566;2023-04-29T06:50:19;96345.53;;;16.30;100.00
39243;BME280;29823;47.404;8.566;2023-04-29T06:52:48;96353.63;;;16.25;100.00
39243;BME280;29823;47.404;8.566;2023-04-29T06:55:16;96352.00;;;16.09;100.00
39243;BME280;29823;47.404;8.566;2023-04-29T06:57:44;96345.25;;;16.07;100.00
39243;BME280;29823;47.404;8.566;2023-04-29T07:00:12;96343.88;;;16.19;100.00
39243;BME280;29823;47.404;8.566;2023-04-29T07:02:41;96349.00;;;16.16;100.00
39243;BME280;29823;47.404;8.566;2023-04-29T07:05:09;96342.53;;;16.22;100.00
39243;BME280;29823;47.404;8.566;2023-04-29T07:07:37;96350.38;;;16.33;100.00
39243;BME280;29823;47.404;8.566;2023-04-29T07:10:08;96346.06;;;16.42;100.00
39243;BME280;29823;47.404;8.566;2023-04-29T07:12:36;96346.84;;;16.58;100.00
39243;BME280;29823;47.404;8.566;2023-04-29T07:15:05;96321.78;;;16.42;100.00
39243;BME280;29823;47.404;8.566;2023-04-29T07:17:33;96346.88;;;16.48;100.00
39243;BME280;29823;47.404;8.566;2023-04-29T07:20:01;96348.22;;;16.55;100.00
39243;BME280;29823;47.404;8.566;2023-04-29T07:22:29;96350.66;;;16.47;100.00
39243;BME280;29823;47.404;8.566;2023-04-29T07:24:57;96352.78;;;16.35;100.00
39243;BME280;29823;47.404;8.566;2023-04-29T07:27:26;96358.19;;;16.30;100.00
39243;BME280;29823;47.404;8.566;2023-04-29T07:29:54;96355.22;;;16.31;100.00
39243;BME280;29823;47.404;8.566;2023-04-29T07:32:23;96359.81;;;16.56;100.00
39243;BME280;29823;47.404;8.566;2023-04-29T07:34:51;96371.72;;;16.50;100.00
39243;BME280;29823;47.404;8.566;2023-04-29T07:37:19;96365.16;;;16.81;100.00
39243;BME280;29823;47.404;8.566;2023-04-29T07:39:47;96364.41;;;16.30;100.00
39243;BME280;29823;47.404;8.566;2023-04-29T07:42:15;96371.41;;;16.66;100.00
39243;BME280;29823;47.404;8.566;2023-04-29T07:44:44;96381.56;;;17.09;100.00
39243;BME280;29823;47.404;8.566;2023-04-29T07:47:12;96379.56;;;17.35;100.00
39243;BME280;29823;47.404;8.566;2023-04-29T07:49:40;96371.13;;;17.56;100.00
39243;BME280;29823;47.404;8.566;2023-04-29T07:52:08;96369.59;;;17.30;100.00
39243;BME280;29823;47.404;8.566;2023-04-29T07:54:36;96369.31;;;17.37;100.00
39243;BME280;29823;47.404;8.566;2023-04-29T07:57:04;96360.69;;;17.88;100.00
39243;BME280;29823;47.404;8.566;2023-04-29T07:59:31;96367.53;;;18.14;100.00
39243;BME280;29823;47.404;8.566;2023-04-29T08:02:01;96366.31;;;18.64;100.00
39243;BME280;29823;47.404;8.566;2023-04-29T08:04:29;96376.34;;;19.62;100.00
39243;BME280;29823;47.404;8.566;2023-04-29T08:06:57;96350.25;;;19.85;100.00
39243;BME280;29823;47.404;8.566;2023-04-29T08:09:25;96358.41;;;19.66;100.00
39243;BME280;29823;47.404;8.566;2023-04-29T08:11:53;96367.16;;;18.88;100.00
39243;BME280;29823;47.404;8.566;2023-04-29T08:14:20;96364.34;;;20.24;100.00
39243;BME280;29823;47.404;8.566;2023-04-29T08:16:48;96367.03;;;21.60;100.00
39243;BME280;29823;47.404;8.566;2023-04-29T08:19:17;96368.69;;;22.76;100.00
39243;BME280;29823;47.404;8.566;2023-04-29T08:21:47;96361.50;;;23.41;100.00
39243;BME280;29823;47.404;8.566;2023-04-29T08:24:14;96355.19;;;22.27;100.00
39243;BME280;29823;47.404;8.566;2023-04-29T08:26:42;96362.91;;;22.69;100.00
39243;BME280;29823;47.404;8.566;2023-04-29T08:29:10;96356.38;;;24.04;91.27
39243;BME280;29823;47.404;8.566;2023-04-29T08:31:38;96353.03;;;23.90;92.10
39243;BME280;29823;47.404;8.566;2023-04-29T08:34:06;96347.72;;;24.62;80.32
39243;BME280;29823;47.404;8.566;2023-04-29T08:36:35;96359.47;;;21.57;98.51
39243;BME280;29823;47.404;8.566;2023-04-29T08:39:04;96353.53;;;20.69;100.00
39243;BME280;29823;47.404;8.566;2023-04-29T08:41:32;96358.97;;;21.28;100.00
39243;BME280;29823;47.404;8.566;2023-04-29T08:43:59;96362.38;;;21.74;100.00
39243;BME280;29823;47.404;8.566;2023-04-29T08:46:27;96356.59;;;20.49;100.00
39243;BME280;29823;47.404;8.566;2023-04-29T08:48:55;96358.47;;;22.16;93.08
39243;BME280;29823;47.404;8.566;2023-04-29T08:51:24;96356.25;;;21.82;92.42
39243;BME280;29823;47.404;8.566;2023-04-29T08:53:55;96318.75;;;22.01;93.01
39243;BME280;29823;47.404;8.566;2023-04-29T08:56:22;96349.72;;;22.27;95.94
39243;BME280;29823;47.404;8.566;2023-04-29T08:58:54;96349.19;;;24.59;75.57
39243;BME280;29823;47.404;8.566;2023-04-29T09:01:26;96345.44;;;24.89;72.62
39243;BME280;29823;47.404;8.566;2023-04-29T09:04:02;96351.47;;;25.58;62.67
39243;BME280;29823;47.404;8.566;2023-04-29T09:06:35;96341.59;;;24.56;73.43
39243;BME280;29823;47.404;8.566;2023-04-29T09:09:05;96345.13;;;24.65;65.90
39243;BME280;29823;47.404;8.566;2023-04-29T09:11:34;96346.84;;;26.28;64.30
39243;BME280;29823;47.404;8.566;2023-04-29T09:14:02;96334.75;;;26.82;57.03
39243;BME280;29823;47.404;8.566;2023-04-29T09:16:31;96349.50;;;27.22;57.92
39243;BME280;29823;47.404;8.566;2023-04-29T09:18:59;96348.22;;;25.64;60.75
39243;BME280;29823;47.404;8.566;2023-04-29T09:21:27;96345.94;;;23.98;66.55
39243;BME280;29823;47.404;8.566;2023-04-29T09:23:58;96324.44;;;25.10;61.46
39243;BME280;29823;47.404;8.566;2023-04-29T09:26:41;96344.41;;;27.00;57.34
39243;BME280;29823;47.404;8.566;2023-04-29T09:29:10;96347.09;;;25.94;64.05
39243;BME280;29823;47.404;8.566;2023-04-29T09:31:40;96341.31;;;27.02;60.86
39243;BME280;29823;47.404;8.566;2023-04-29T09:34:09;96329.00;;;24.89;62.28
39243;BME280;29823;47.404;8.566;2023-04-29T09:36:42;96338.31;;;23.22;69.65
39243;BME280;29823;47.404;8.566;2023-04-29T09:39:12;96335.31;;;24.73;62.87
39243;BME280;29823;47.404;8.566;2023-04-29T09:41:57;96326.19;;;24.69;65.31
39243;BME280;29823;47.404;8.566;2023-04-29T09:44:29;96332.06;;;26.00;62.12
39243;BME280;29823;47.404;8.566;2023-04-29T09:47:01;96331.81;;;26.14;59.08
39243;BME280;29823;47.404;8.566;2023-04-29T09:49:30;96335.50;;;24.59;64.54
39243;BME280;29823;47.404;8.566;2023-04-29T09:52:01;96333.00;;;26.45;57.49
39243;BME280;29823;47.404;8.566;2023-04-29T09:54:31;96326.88;;;26.81;57.59
39243;BME280;29823;47.404;8.566;2023-04-29T09:57:00;96327.97;;;26.47;55.12
39243;BME280;29823;47.404;8.566;2023-04-29T09:59:32;96324.94;;;26.81;55.64
39243;BME280;29823;47.404;8.566;2023-04-29T10:02:06;96320.53;;;28.60;52.77
39243;BME280;29823;47.404;8.566;2023-04-29T10:04:39;96319.47;;;28.25;51.42
39243;BME280;29823;47.404;8.566;2023-04-29T10:07:12;96315.44;;;25.47;55.53
39243;BME280;29823;47.404;8.566;2023-04-29T10:09:41;96320.72;;;24.01;61.34
39243;BME280;29823;47.404;8.566;2023-04-29T10:12:14;96322.78;;;22.61;66.67
39243;BME280;29823;47.404;8.566;2023-04-29T10:14:47;96312.56;;;23.36;67.59
39243;BME280;29823;47.404;8.566;2023-04-29T10:17:20;96302.53;;;25.48;57.63
39243;BME280;29823;47.404;8.566;2023-04-29T10:19:54;96318.34;;;25.71;56.67
39243;BME280;29823;47.404;8.566;2023-04-29T10:22:43;96311.03;;;27.10;53.79
39243;BME280;29823;47.404;8.566;2023-04-29T10:25:12;96305.25;;;27.84;51.39
39243;BME280;29823;47.404;8.566;2023-04-29T10:27:44;96293.66;;;28.02;49.19
39243;BME280;29823;47.404;8.566;2023-04-29T10:30:12;96301.13;;;26.73;52.81
39243;BME280;29823;47.404;8.566;2023-04-29T10:32:42;96298.03;;;27.91;51.78
39243;BME280;29823;47.404;8.566;2023-04-29T10:35:18;96293.97;;;27.05;49.94
39243;BME280;29823;47.404;8.566;2023-04-29T10:37:48;96288.22;;;26.00;49.05
39243;BME280;29823;47.404;8.566;2023-04-29T10:40:18;96278.03;;;26.86;49.55
39243;BME280;29823;47.404;8.566;2023-04-29T10:42:51;96273.91;;;27.25;49.38
39243;BME280;29823;47.404;8.566;2023-04-29T10:45:23;96277.06;;;27.99;47.91
39243;BME280;29823;47.404;8.566;2023-04-29T10:48:12;96271.19;;;28.67;45.22
39243;BME280;29823;47.404;8.566;2023-04-29T10:51:02;96264.75;;;27.81;43.19
39243;BME280;29823;47.404;8.566;2023-04-29T10:53:31;96273.28;;;26.30;49.20
39243;BME280;29823;47.404;8.566;2023-04-29T10:56:04;96266.03;;;24.43;53.88
39243;BME280;29823;47.404;8.566;2023-04-29T10:58:38;96262.56;;;24.89;54.97
39243;BME280;29823;47.404;8.566;2023-04-29T11:01:09;96265.78;;;23.94;58.36
39243;BME280;29823;47.404;8.566;2023-04-29T11:03:52;96273.38;;;22.93;62.54
39243;BME280;29823;47.404;8.566;2023-04-29T11:06:38;96267.16;;;21.96;63.91
39243;BME280;29823;47.404;8.566;2023-04-29T11:09:14;96270.06;;;22.22;64.90
39243;BME280;29823;47.404;8.566;2023-04-29T11:11:55;96273.06;;;21.27;70.70
39243;BME280;29823;47.404;8.566;2023-04-29T11:14:29;96256.72;;;20.60;77.30
39243;BME280;29823;47.404;8.566;2023-04-29T11:16:58;96269.50;;;20.14;87.73
39243;BME280;29823;47.404;8.566;2023-04-29T11:19:30;96283.06;;;20.14;100.00
39243;BME280;29823;47.404;8.566;2023-04-29T11:22:11;96292.03;;;19.96;94.73
39243;BME280;29823;47.404;8.566;2023-04-29T11:24:49;96281.13;;;19.45;76.70
39243;BME280;29823;47.404;8.566;2023-04-29T11:27:19;96290.50;;;19.71;80.89
39243;BME280;29823;47.404;8.566;2023-04-29T11:29:53;96283.75;;;19.87;80.98
39243;BME280;29823;47.404;8.566;2023-04-29T11:32:26;96275.69;;;19.82;81.43
39243;BME280;29823;47.404;8.566;2023-04-29T11:34:54;96269.94;;;20.02;73.51
39243;BME280;29823;47.404;8.566;2023-04-29T11:37:23;96284.31;;;20.21;72.64
39243;BME280;29823;47.404;8.566;2023-04-29T11:39:58;96264.78;;;20.19;70.28
39243;BME280;29823;47.404;8.566;2023-04-29T11:42:26;96283.44;;;22.10;66.14
39243;BME280;29823;47.404;8.566;2023-04-29T11:44:56;96276.44;;;25.50;53.50
39243;BME280;29823;47.404;8.566;2023-04-29T11:47:26;96271.44;;;26.02;46.12
39243;BME280;29823;47.404;8.566;2023-04-29T11:50:03;96268.88;;;27.39;46.55
39243;BME280;29823;47.404;8.566;2023-04-29T11:52:31;96258.41;;;27.92;46.05
39243;BME280;29823;47.404;8.566;2023-04-29T11:54:59;96262.03;;;29.68;39.64
39243;BME280;29823;47.404;8.566;2023-04-29T11:57:28;96210.28;;;30.53;37.70
39243;BME280;29823;47.404;8.566;2023-04-29T11:59:58;96242.66;;;30.56;37.68
39243;BME280;29823;47.404;8.566;2023-04-29T12:02:30;96235.25;;;29.69;39.55
39243;BME280;29823;47.404;8.566;2023-04-29T12:04:59;96242.72;;;30.60;38.38
39243;BME280;29823;47.404;8.566;2023-04-29T12:07:28;96237.94;;;31.43;34.81
39243;BME280;29823;47.404;8.566;2023-04-29T12:09:56;96236.41;;;31.72;34.13
39243;BME280;29823;47.404;8.566;2023-04-29T12:12:25;96236.16;;;31.09;37.70
39243;BME280;29823;47.404;8.566;2023-04-29T12:14:54;96232.06;;;31.22;34.31
39243;BME280;29823;47.404;8.566;2023-04-29T12:17:24;96237.16;;;31.95;34.08
39243;BME280;29823;47.404;8.566;2023-04-29T12:19:52;96233.97;;;30.16;35.01
39243;BME280;29823;47.404;8.566;2023-04-29T12:22:20;96224.69;;;31.07;33.76
39243;BME280;29823;47.404;8.566;2023-04-29T12:24:51;96228.88;;;31.20;35.61
39243;BME280;29823;47.404;8.566;2023-04-29T12:27:20;96233.63;;;29.18;37.66
39243;BME280;29823;47.404;8.566;2023-04-29T12:29:50;96230.88;;;29.83;40.43
39243;BME280;29823;47.404;8.566;2023-04-29T12:32:22;96227.09;;;28.09;40.46
39243;BME280;29823;47.404;8.566;2023-04-29T12:34:51;96237.69;;;26.75;43.92
39243;BME280;29823;47.404;8.566;2023-04-29T12:37:20;96234.19;;;25.80;46.04
39243;BME280;29823;47.404;8.566;2023-04-29T12:39:48;96250.75;;;24.59;49.70
39243;BME280;29823;47.404;8.566;2023-04-29T12:42:16;96247.19;;;23.23;54.04
39243;BME280;29823;47.404;8.566;2023-04-29T12:44:44;96250.06;;;22.87;62.25
39243;BME280;29823;47.404;8.566;2023-04-29T12:47:14;96243.84;;;22.26;60.19
39243;BME280;29823;47.404;8.566;2023-04-29T12:49:43;96254.78;;;22.12;64.37
39243;BME280;29823;47.404;8.566;2023-04-29T12:52:13;96254.59;;;21.87;62.97
39243;BME280;29823;47.404;8.566;2023-04-29T12:54:41;96249.47;;;22.07;66.60
39243;BME280;29823;47.404;8.566;2023-04-29T12:57:09;96245.69;;;23.90;57.32
39243;BME280;29823;47.404;8.566;2023-04-29T12:59:38;96246.44;;;27.25;52.28
39243;BME280;29823;47.404;8.566;2023-04-29T13:02:07;96237.84;;;28.84;46.13
39243;BME280;29823;47.404;8.566;2023-04-29T13:04:34;96237.53;;;28.58;42.91